• Join FlightAware (Why Join?)
  • Login
  • US Flag 
Trick or treat! (Boo!!) 
02:17AM EDT


 

Airport Tracker/Info


-or-


 

Live Flight TrackerFlight Track Log ✈ ICE681 ✈ 09-May-2013 ✈ BIKF / KEF - KSEA

Flight Track Log - Related Links

Times and Time Zones

All times are in EDT time to prevent confusion due to time zone crossing. See the ICE681 flight status page for this flight to view local times or setup timezone preferences in your user account.

Time Position Orientation Groundspeed Altitude Reporting Facility
EDT Latitude Longitude Course Direction KTS MPH feet Rate Location/Type
01:09PM 64.0870 -23.0430 306° West 274 315 7,300  Level FlightAware
01:10PM 64.1110 -23.1140 308° West 283 326 8,400 2,280 Climbing FlightAware
01:10PM 64.1300 -23.1750 306° West 288 331 9,400 2,040 Climbing FlightAware
01:11PM 64.1670 -23.2890 307° West 317 365 10,800 1,680 Climbing FlightAware
01:12PM 64.2040 -23.4050 306° West 352 405 11,800 2,100 Climbing FlightAware
01:12PM 64.2490 -23.5460 306° West 361 415 13,800 2,520 Climbing FlightAware
01:13PM 64.2880 -23.6720 306° West 368 423 15,400 2,400 Climbing FlightAware
01:14PM 64.3330 -23.8130 306° West 376 433 17,200 2,220 Climbing FlightAware
01:14PM 64.3740 -23.9460 306° West 386 444 18,600 1,980 Climbing FlightAware
01:15PM 64.4160 -24.0820 306° West 395 455 19,900 1,920 Climbing FlightAware
01:16PM 64.4660 -24.2420 306° West 405 466 21,400 1,800 Climbing FlightAware
01:16PM 64.5070 -24.3780 305° West 412 474 22,500 1,800 Climbing FlightAware
01:17PM 64.5540 -24.5310 306° West 419 482 23,800 1,740 Climbing FlightAware
01:18PM 64.6040 -24.6990 305° West 425 489 25,000 1,500 Climbing FlightAware
01:19PM 64.6490 -24.8460 306° West 432 497 26,000 1,380 Climbing FlightAware
01:19PM 64.6920 -24.9890 305° West 436 502 26,900 660 Climbing FlightAware
01:20PM 64.7400 -25.1590 304° West 439 505 27,000 60 Climbing FlightAware
01:21PM 64.7790 -25.2930 304° West 439 505 27,000  Level FlightAware
01:21PM 64.8170 -25.4270 304° West 439 505 27,000  Level FlightAware
01:22PM 64.8560 -25.5620 304° West 439 505 27,000  Level FlightAware
01:23PM 64.9040 -25.7310 304° West 439 505 27,000  Level FlightAware
01:23PM 64.9330 -25.8320 304° West 439 505 27,000 60 Level FlightAware
01:26PM 65.0600 -26.3668 299° West  Level Estimated
01:27PM 65.1167 -26.6097 298° West  Level Estimated
01:28PM 65.1356 -26.8841 279° West  Level FlightAware Approximate
01:29PM 65.1541 -27.1589 279° West  Level FlightAware Approximate
01:30PM 65.2096 -27.4042 301° West  Level Estimated
01:31PM 65.2647 -27.6506 298° West  Level Estimated
01:32PM 65.3191 -27.8983 298° West  Level FlightAware Approximate
01:33PM 65.3730 -28.1471 298° West  Level FlightAware Approximate
01:34PM 65.4266 -28.3969 297° West  Level FlightAware Approximate
01:35PM 65.4797 -28.6478 297° West  Level FlightAware Approximate
01:36PM 65.5324 -28.8996 297° West  Level FlightAware Approximate
01:37PM 65.5847 -29.1525 297° West  Level FlightAware Approximate
01:38PM 65.6366 -29.4064 296° West  Level FlightAware Approximate
01:39PM 65.6880 -29.6612 296° West  Level FlightAware Approximate
01:40PM 65.7390 -29.9172 296° West  Level FlightAware Approximate
01:41PM 65.7896 -30.1741 296° West  Level FlightAware Approximate
01:42PM 65.8398 -30.4320 296° West  Level FlightAware Approximate
01:43PM 65.8895 -30.6909 295° West  Level FlightAware Approximate
01:44PM 65.9388 -30.9508 295° West  Level FlightAware Approximate
01:45PM 65.9876 -31.2118 295° West  Level FlightAware Approximate
01:46PM 66.0360 -31.4737 295° West  Level FlightAware Approximate
01:47PM 66.0840 -31.7366 294° West  Level FlightAware Approximate
01:48PM 66.1315 -32.0005 294° West  Level FlightAware Approximate
01:49PM 66.1786 -32.2654 294° West  Level FlightAware Approximate
01:50PM 66.2252 -32.5312 294° West  Level FlightAware Approximate
01:51PM 66.2713 -32.7981 293° West  Level FlightAware Approximate
01:52PM 66.3170 -33.0659 293° West  Level FlightAware Approximate
01:53PM 66.3622 -33.3347 293° West  Level FlightAware Approximate
01:54PM 66.4070 -33.6045 293° West  Level FlightAware Approximate
01:55PM 66.4513 -33.8752 292° West  Level FlightAware Approximate
01:56PM 66.4951 -34.1469 292° West  Level FlightAware Approximate
01:57PM 66.5384 -34.4195 292° West  Level FlightAware Approximate
01:58PM 66.5813 -34.6931 292° West  Level FlightAware Approximate
01:59PM 66.6237 -34.9676 291° West  Level FlightAware Approximate
02:00PM 66.6656 -35.2431 291° West  Level FlightAware Approximate
02:01PM 66.7070 -35.5195 291° West  Level FlightAware Approximate
02:02PM 66.7480 -35.7968 291° West  Level FlightAware Approximate
02:03PM 66.7884 -36.0750 290° West  Level FlightAware Approximate
02:04PM 66.8284 -36.3541 290° West  Level FlightAware Approximate
02:05PM 66.8679 -36.6342 290° West  Level FlightAware Approximate
02:06PM 66.9069 -36.9151 290° West  Level FlightAware Approximate
02:07PM 66.9453 -37.1970 289° West  Level FlightAware Approximate
02:08PM 66.9833 -37.4797 289° West  Level FlightAware Approximate
02:09PM 67.0208 -37.7633 289° West  Level FlightAware Approximate
02:10PM 67.0577 -38.0478 289° West  Level FlightAware Approximate
02:11PM 67.0942 -38.3331 288° West  Level FlightAware Approximate
02:12PM 67.1302 -38.6193 288° West  Level FlightAware Approximate
02:13PM 67.1656 -38.9064 288° West  Level FlightAware Approximate
02:14PM 67.2005 -39.1942 288° West  Level FlightAware Approximate
02:15PM 67.2349 -39.4829 287° West  Level FlightAware Approximate
02:16PM 67.2688 -39.7725 287° West  Level FlightAware Approximate
02:17PM 67.3021 -40.0628 287° West  Level FlightAware Approximate
02:18PM 67.3350 -40.3540 286° West  Level FlightAware Approximate
02:19PM 67.3673 -40.6459 286° West  Level FlightAware Approximate
02:20PM 67.3990 -40.9386 286° West  Level FlightAware Approximate
02:21PM 67.4303 -41.2321 286° West  Level FlightAware Approximate
02:22PM 67.4610 -41.5264 285° West  Level FlightAware Approximate
02:23PM 67.4912 -41.8214 285° West  Level FlightAware Approximate
02:24PM 67.5208 -42.1171 285° West  Level FlightAware Approximate
02:25PM 67.5499 -42.4136 285° West  Level FlightAware Approximate
02:26PM 67.5784 -42.7108 284° West  Level FlightAware Approximate
02:27PM 67.6064 -43.0088 284° West  Level FlightAware Approximate
02:28PM 67.6339 -43.3074 284° West  Level FlightAware Approximate
02:29PM 67.6608 -43.6067 283° West  Level FlightAware Approximate
02:30PM 67.6871 -43.9067 283° West  Level FlightAware Approximate
02:31PM 67.7130 -44.2073 283° West  Level FlightAware Approximate
02:32PM 67.7386 -44.5084 283° West  Level Estimated
02:33PM 67.7637 -44.8102 283° West  Level FlightAware Approximate
02:34PM 67.7882 -45.1125 282° West  Level FlightAware Approximate
02:35PM 67.8122 -45.4155 282° West  Level FlightAware Approximate
02:36PM 67.8356 -45.7191 282° West  Level FlightAware Approximate
02:37PM 67.8585 -46.0234 281° West  Level FlightAware Approximate
02:38PM 67.8807 -46.3282 281° West  Level FlightAware Approximate
02:39PM 67.9024 -46.6335 281° West  Level FlightAware Approximate
02:40PM 67.9236 -46.9395 281° West  Level FlightAware Approximate
02:41PM 67.9442 -47.2460 280° West  Level FlightAware Approximate
02:42PM 67.9642 -47.5530 280° West  Level FlightAware Approximate
02:43PM 67.9836 -47.8606 280° West  Level FlightAware Approximate
02:44PM 68.0025 -48.1687 279° West  Level FlightAware Approximate
02:45PM 68.0207 -48.4772 279° West  Level FlightAware Approximate
02:46PM 68.0384 -48.7863 279° West  Level FlightAware Approximate
02:47PM 68.0556 -49.0958 279° West  Level FlightAware Approximate
02:48PM 68.0721 -49.4057 278° West  Level FlightAware Approximate
02:49PM 68.0881 -49.7161 278° West  Level FlightAware Approximate
02:50PM 68.1034 -50.0270 278° West  Level FlightAware Approximate
02:51PM 68.1182 -50.3382 277° West  Level FlightAware Approximate
02:52PM 68.1324 -50.6498 277° West  Level FlightAware Approximate
02:53PM 68.1461 -50.9618 277° West  Level FlightAware Approximate
02:53PM 69.0167 -52.3000 275° West 460 529 36,000  Level Edmonton Center
02:54PM 68.1591 -51.2742 277° West  Level FlightAware Approximate
02:54PM 69.0333 -52.6833 277° West 460 529 36,000  Level Edmonton Center
02:55PM 68.1716 -51.5869 276° West  Level FlightAware Approximate
02:55PM 69.0333 -53.0000 270° West 460 529 36,000  Level Edmonton Center
02:56PM 68.1834 -51.8999 276° West  Level FlightAware Approximate
02:56PM 69.0333 -53.3500 270° West 460 529 36,000  Level Edmonton Center
02:57PM 68.1947 -52.2132 276° West  Level FlightAware Approximate
02:57PM 69.0500 -53.7167 277° West 460 529 36,000  Level Edmonton Center
02:58PM 68.2054 -52.5269 275° West  Level FlightAware Approximate
02:58PM 69.0333 -54.0667 263° West 460 529 36,000  Level Edmonton Center
02:59PM 69.0333 -54.3833 270° West 460 529 36,000  Level Edmonton Center
03:00PM 69.0333 -54.7667 270° West 460 529 36,000  Level Edmonton Center
03:01PM 69.0500 -55.1000 278° West 460 529 36,000  Level Edmonton Center
03:02PM 69.0333 -55.4500 263° West 460 529 36,000  Level Edmonton Center
03:03PM 69.0500 -55.8000 278° West 460 529 36,000  Level Edmonton Center
03:04PM 69.0500 -56.1333 270° West 460 529 36,000  Level Edmonton Center
03:05PM 69.0333 -56.4833 263° West 460 529 36,000  Level Edmonton Center
03:06PM 69.0333 -56.8333 270° West 450 518 36,000  Level Edmonton Center
03:07PM 69.0333 -57.2000 270° West 450 518 36,000  Level Edmonton Center
03:08PM 69.0167 -57.5167 262° West 450 518 36,000  Level Edmonton Center
03:09PM 69.0167 -57.8500 270° West 450 518 36,000  Level Edmonton Center
03:10PM 69.0167 -58.2333 270° West 450 518 36,000  Level Edmonton Center
03:11PM 69.0167 -58.5500 270° West 450 518 36,000  Level Edmonton Center
03:12PM 69.0000 -58.9167 263° West 450 518 36,000  Level Edmonton Center
03:13PM 68.9833 -59.2333 262° West 450 518 36,000  Level Edmonton Center
03:14PM 68.9833 -59.5833 270° West 450 518 36,000  Level Edmonton Center
03:15PM 68.9667 -59.9500 263° West 450 518 36,000  Level Edmonton Center
03:16PM 68.9667 -60.2667 270° West 450 518 36,000  Level Edmonton Center
03:17PM 68.9667 -60.6167 270° West 450 518 36,000  Level Edmonton Center
03:18PM 68.9500 -60.9500 262° West 450 518 36,000  Level Edmonton Center
03:19PM 68.9500 -61.3000 270° West 450 518 36,000  Level Edmonton Center
03:20PM 68.9333 -61.6500 263° West 450 518 36,000  Level Edmonton Center
03:21PM 68.9333 -62.0167 270° West 450 518 36,000  Level Edmonton Center
03:22PM 68.9167 -62.3333 262° West 450 518 36,000  Level Edmonton Center
03:23PM 68.9000 -62.6500 262° West 450 518 36,000  Level Edmonton Center
03:24PM 68.9000 -63.0500 270° West 450 518 36,000  Level Edmonton Center
03:25PM 68.8833 -63.3667 262° West 450 518 36,000  Level Edmonton Center
03:26PM 68.8667 -63.7167 263° West 450 518 36,000  Level Edmonton Center
03:27PM 68.8500 -64.0333 262° West 450 518 36,000  Level Edmonton Center
03:28PM 68.8333 -64.3833 263° West 450 518 36,000  Level Edmonton Center
03:29PM 68.8167 -64.7500 263° West 450 518 36,000  Level Edmonton Center
03:30PM 68.8000 -65.0667 262° West 450 518 36,000  Level Edmonton Center
03:31PM 68.7833 -65.3833 262° West 450 518 36,000 -2,100 Level Edmonton Center
03:31PM 54.4500 -78.0833 209° Southwest 540 621 32,500  Descending Edmonton Center
03:32PM 68.7667 -65.7000 17° North 450 518 36,000 2,640 Climbing Edmonton Center
03:33PM 68.7500 -66.0833 263° West 450 518 36,000 -1,140 Level Edmonton Center
03:34PM 54.8500 -77.7500 207° Southwest 530 610 33,000  Descending Edmonton Center
03:35PM 68.7167 -66.7500 16° North 450 518 36,000  Climbing Edmonton Center
03:35PM 54.9833 -77.6167 205° Southwest 530 610 33,000  Descending Edmonton Center
03:36PM 68.7000 -67.0667 15° North 450 518 36,000 2,220 Climbing Edmonton Center
03:37PM 68.6667 -67.4167 255° West 450 518 36,000 -1,800 Level Edmonton Center
03:37PM 55.2500 -77.3833 204° Southwest 530 610 33,000  Descending Edmonton Center
03:38PM 68.6500 -67.7667 14° North 450 518 36,000  Climbing Edmonton Center
03:38PM 55.3833 -77.2833 203° Southwest 530 610 33,000  Descending Edmonton Center
03:39PM 68.6167 -68.0833 14° North 450 518 36,000 2,220 Climbing Edmonton Center
03:40PM 68.6000 -68.4000 262° West 450 518 36,000  Level Edmonton Center
03:41PM 68.5833 -68.7500 263° West 450 518 36,000 -1,800 Level Edmonton Center
03:41PM 55.7833 -76.9500 200° South 530 610 33,000  Descending Edmonton Center
03:42PM 68.5500 -69.0833 13° North 450 518 36,000  Climbing Edmonton Center
03:42PM 55.9000 -76.8167 199° South 530 610 33,000  Descending Edmonton Center
03:43PM 68.5167 -69.4000 12° North 440 506 36,000 2,220 Climbing Edmonton Center
03:44PM 68.5000 -69.7167 262° West 440 506 36,000  Level Edmonton Center
03:45PM 68.4833 -70.0667 263° West 440 506 36,000  Level Edmonton Center
03:46PM 68.4500 -70.3833 254° West 440 506 36,000  Level Edmonton Center
03:47PM 68.4333 -70.7333 263° West 440 506 36,000  Level Edmonton Center
03:48PM 68.4167 -71.0667 262° West 450 518 36,000  Level Edmonton Center
03:49PM 68.3833 -71.3833 254° West 440 506 36,000  Level Edmonton Center
03:50PM 68.3667 -71.7333 263° West 450 518 36,000  Level Edmonton Center
03:51PM 68.3333 -72.0333 253° West 450 518 36,000  Level Edmonton Center
03:52PM 68.3000 -72.3500 254° West 450 518 36,000  Level Edmonton Center
03:53PM 68.2833 -72.6833 262° West 450 518 36,000  Level Edmonton Center
03:54PM 68.2500 -73.0000 254° West 450 518 36,000  Level Edmonton Center
03:55PM 68.2167 -73.3333 255° West 450 518 36,000  Level Edmonton Center
03:56PM 68.2000 -73.6833 263° West 450 518 36,000  Level Edmonton Center
03:57PM 68.1667 -73.9833 253° West 450 518 36,000  Level Edmonton Center
03:58PM 68.1333 -74.3333 256° West 450 518 36,000  Level Edmonton Center
03:59PM 68.1000 -74.6333 254° West 450 518 36,000  Level Edmonton Center
04:00PM 68.0667 -74.9667 255° West 450 518 36,000  Level Edmonton Center
04:01PM 68.0333 -75.2667 254° West 450 518 36,000  Level Edmonton Center
04:02PM 68.0000 -75.6167 256° West 450 518 36,000  Level Edmonton Center
04:03PM 67.9667 -75.9500 255° West 450 518 36,000  Level Edmonton Center
04:04PM 67.9333 -76.2500 254° West 450 518 36,000  Level Edmonton Center
04:05PM 67.9000 -76.5833 255° West 450 518 36,000  Level Edmonton Center
04:06PM 67.8667 -76.8833 254° West 450 518 36,000  Level Edmonton Center
04:07PM 67.8333 -77.2167 255° West 440 506 36,000  Level Edmonton Center
04:08PM 67.7833 -77.5167 246° West 440 506 36,000  Level Edmonton Center
04:09PM 67.7667 -77.7833 261° West 440 506 36,000  Level Edmonton Center
04:10PM 67.7333 -78.1167 255° West 440 506 36,000  Level Edmonton Center
04:11PM 67.6833 -78.4000 245° Southwest 440 506 36,000  Level Edmonton Center
04:12PM 67.6500 -78.7333 255° West 440 506 36,000  Level Edmonton Center
04:13PM 67.6167 -79.0333 254° West 440 506 36,000  Level Edmonton Center
04:14PM 67.5667 -79.3500 248° West 440 506 36,000  Level Edmonton Center
04:15PM 67.5333 -79.6500 254° West 440 506 36,000  Level Edmonton Center
04:16PM 67.4833 -79.9667 248° West 440 506 36,000  Level Edmonton Center
04:18PM 67.4080 -80.4642 249° West  Level FlightAware Approximate
04:22PM 67.1667 -81.7167 246° West 440 506 36,000  Level Edmonton Center
04:23PM 67.1167 -82.0000 246° West 440 506 36,000 600 Level Edmonton Center
04:24PM 67.0500 -82.2833 239° Southwest 430 495 37,300 960 Climbing Edmonton Center
04:25PM 67.0821 -82.4791 248° West  Level FlightAware Approximate
04:25PM 67.0000 -82.5667 246° West 430 495 38,000  Level Edmonton Center
04:26PM 67.0335 -82.7625 246° West  Level FlightAware Approximate
04:26PM 66.9500 -82.8333 245° Southwest 440 506 38,000  Level Edmonton Center
04:27PM 66.9844 -83.0447 246° West  Level FlightAware Approximate
04:27PM 66.8833 -83.1167 239° Southwest 440 506 38,000  Level Edmonton Center
04:28PM 66.8333 -83.4000 246° West 440 506 38,000 -3,420 Level Edmonton Center
04:28PM 61.9500 -72.2667 130° Southeast 500 575 33,000  Descending Edmonton Center
04:29PM 66.7833 -83.6667 319° Northwest 440 506 38,000  Climbing Edmonton Center
04:29PM 62.0667 -72.1500 128° Southeast 500 575 33,000  Descending Edmonton Center
04:30PM 66.7167 -83.9500 318° Northwest 440 506 38,000  Climbing Edmonton Center
04:30PM 62.2000 -72.0833 126° Southeast 500 575 33,000  Descending Edmonton Center
04:31PM 66.6667 -84.2167 316° Northwest 440 506 38,000  Climbing Edmonton Center
04:31PM 62.3333 -71.9667 124° Southeast 500 575 33,000  Descending Edmonton Center
04:32PM 66.5833 -84.5000 314° West 440 506 38,000  Climbing Edmonton Center
04:32PM 62.4833 -71.8833 121° Southeast 500 575 33,000  Descending Edmonton Center
04:33PM 66.5333 -84.7667 312° West 440 506 38,000  Climbing Edmonton Center
04:33PM 62.6000 -71.7667 119° Southeast 500 575 33,000  Descending Edmonton Center
04:34PM 66.4833 -85.0333 310° West 430 495 38,000  Climbing Edmonton Center
04:34PM 62.7333 -71.6833 117° Southeast 500 575 33,000  Descending Edmonton Center
04:35PM 66.4167 -85.3167 308° West 440 506 38,000  Climbing Edmonton Center
04:35PM 62.8500 -71.5833 115° Southeast 500 575 33,000  Descending Edmonton Center
04:36PM 66.3500 -85.5333 307° West 430 495 38,000  Climbing Edmonton Center
04:36PM 62.9833 -71.4667 113° Southeast 500 575 33,000  Descending Edmonton Center
04:37PM 66.3000 -85.8000 305° West 440 506 38,000  Climbing Edmonton Center
04:37PM 63.1333 -71.3667 111° Southeast 500 575 33,000  Descending Edmonton Center
04:38PM 66.2333 -86.0667 303° West 430 495 38,000  Climbing Edmonton Center
04:38PM 63.2500 -71.2500 108° East 500 575 33,000  Descending Edmonton Center
04:39PM 66.1667 -86.3333 301° West 430 495 38,000  Climbing Edmonton Center
04:39PM 63.3833 -71.1667 106° East 500 575 33,000  Descending Edmonton Center
04:40PM 66.1167 -86.5833 299° West 430 495 38,000  Climbing Edmonton Center
04:40PM 63.5000 -71.0500 104° East 500 575 33,000  Descending Edmonton Center
04:41PM 66.0500 -86.8500 298° West 440 506 38,000  Climbing Edmonton Center
04:41PM 63.6333 -70.9667 102° East 500 575 33,000  Descending Edmonton Center
04:42PM 65.9833 -87.1167 296° West 440 506 38,000  Climbing Edmonton Center
04:42PM 63.7833 -70.8333 100° East 500 575 33,000  Descending Edmonton Center
04:43PM 65.9167 -87.3667 294° West 440 506 38,000  Climbing Edmonton Center
04:43PM 63.9000 -70.7333 98° East 500 575 33,000  Descending Edmonton Center
04:44PM 65.8500 -87.6333 293° West 440 506 38,000  Climbing Edmonton Center
04:44PM 64.0333 -70.6167 96° East 500 575 33,000  Descending Edmonton Center
04:45PM 65.7833 -87.8833 291° West 440 506 38,000  Climbing Edmonton Center
04:45PM 64.1667 -70.5333 94° East 500 575 33,000  Descending Edmonton Center
04:46PM 65.7333 -88.1500 290° West 440 506 38,000 3,240 Climbing Edmonton Center
04:47PM 65.6500 -88.4000 231° Southwest 440 506 38,000  Level Edmonton Center
04:48PM 65.6000 -88.6500 244° Southwest 440 506 38,000  Level Edmonton Center
04:49PM 65.5333 -88.9000 237° Southwest 440 506 38,000  Level Edmonton Center
04:50PM 65.4500 -89.1500 231° Southwest 440 506 38,000  Level Edmonton Center
04:51PM 65.4000 -89.4000 244° Southwest 440 506 38,000  Level Edmonton Center
04:52PM 65.3333 -89.6167 234° Southwest 430 495 38,000  Level Edmonton Center
04:53PM 65.2500 -89.9000 235° Southwest 440 506 38,000  Level Edmonton Center
04:54PM 65.2000 -90.1500 245° Southwest 440 506 38,000  Level Edmonton Center
04:55PM 65.1333 -90.3833 236° Southwest 440 506 38,000  Level Edmonton Center
04:56PM 65.0667 -90.6667 241° Southwest 440 506 38,000  Level Edmonton Center
04:57PM 65.0000 -90.9000 236° Southwest 440 506 38,000  Level Edmonton Center
04:58PM 64.9500 -91.1833 247° West 440 506 38,000  Level Edmonton Center
04:59PM 64.8833 -91.4167 236° Southwest 440 506 38,000  Level Edmonton Center
05:00PM 64.8167 -91.6500 236° Southwest 440 506 38,000  Level Edmonton Center
05:01PM 64.7500 -91.9333 241° Southwest 440 506 38,000  Level Edmonton Center
05:02PM 64.6833 -92.1667 236° Southwest 430 495 38,000  Level Edmonton Center
05:03PM 64.6167 -92.3833 234° Southwest 430 495 38,000  Level Edmonton Center
05:04PM 64.5500 -92.6167 236° Southwest 440 506 38,000  Level Edmonton Center
05:05PM 64.5000 -92.8833 247° West 430 495 38,000  Level Edmonton Center
05:06PM 64.4333 -93.1167 237° Southwest 430 495 38,000  Level Edmonton Center
05:07PM 64.3667 -93.3333 235° Southwest 430 495 38,000  Level Edmonton Center
05:08PM 64.3000 -93.5667 237° Southwest 430 495 38,000  Level Edmonton Center
05:09PM 64.2333 -93.8000 237° Southwest 430 495 38,000  Level Edmonton Center
05:10PM 64.1667 -94.0500 239° Southwest 430 495 38,000  Level Edmonton Center
05:11PM 64.1000 -94.2833 237° Southwest 430 495 38,000  Level Edmonton Center
05:12PM 64.0333 -94.5000 235° Southwest 430 495 38,000  Level Edmonton Center
05:13PM 63.9667 -94.7167 235° Southwest 430 495 38,000  Level Edmonton Center
05:14PM 63.8833 -94.9500 231° Southwest 430 495 38,000  Level Edmonton Center
05:15PM 63.8167 -95.2000 239° Southwest 430 495 38,000  Level Edmonton Center
05:16PM 63.7500 -95.4167 235° Southwest 430 495 38,000  Level Edmonton Center
05:17PM 63.6833 -95.6333 235° Southwest 430 495 38,000  Level Edmonton Center
05:18PM 63.6000 -95.8500 229° Southwest 430 495 38,000  Level Edmonton Center
05:19PM 63.5333 -96.0667 235° Southwest 430 495 38,000  Level Edmonton Center
05:20PM 63.4667 -96.3167 239° Southwest 430 495 38,000  Level Edmonton Center
05:21PM 63.4000 -96.5333 236° Southwest 430 495 38,000  Level Edmonton Center
05:22PM 63.3167 -96.7333 227° Southwest 430 495 38,000  Level Edmonton Center
05:23PM 63.2500 -96.9500 236° Southwest 430 495 38,000  Level Edmonton Center
05:24PM 63.1667 -97.1667 230° Southwest 430 495 38,000  Level Edmonton Center
05:25PM 63.1000 -97.4000 238° Southwest 430 495 38,000  Level Edmonton Center
05:26PM 63.0333 -97.6167 236° Southwest 430 495 38,000  Level Edmonton Center
05:27PM 62.9500 -97.8167 228° Southwest 430 495 38,000  Level Edmonton Center
05:28PM 62.8833 -98.0167 234° Southwest 430 495 38,000  Level Edmonton Center
05:29PM 62.8000 -98.2333 230° Southwest 430 495 38,000  Level Edmonton Center
05:30PM 62.7167 -98.4333 228° Southwest 430 495 38,000  Level Edmonton Center
05:31PM 62.6500 -98.6667 238° Southwest 430 495 38,000  Level Edmonton Center
05:32PM 62.5833 -98.8667 234° Southwest 430 495 38,000  Level Edmonton Center
05:33PM 62.5167 -99.0667 234° Southwest 430 495 38,000  Level Edmonton Center
05:34PM 62.4333 -99.2667 228° Southwest 430 495 38,000  Level Edmonton Center
05:35PM 62.3667 -99.4667 234° Southwest 430 495 38,000  Level Edmonton Center
05:36PM 62.2833 -99.6667 228° Southwest 430 495 38,000  Level Edmonton Center
05:37PM 62.2000 -99.8500 226° Southwest 430 495 38,000  Level Edmonton Center
05:38PM 62.1333 -100.0833 239° Southwest 430 495 38,000  Level Edmonton Center
05:39PM 62.0500 -100.2833 228° Southwest 430 495 38,000  Level Edmonton Center
05:41PM 61.9170 -100.6416 232° Southwest  Level FlightAware Approximate
05:41PM 61.8833 -100.7500 232° Southwest 490 564 38,000  Level Edmonton Center
05:42PM 61.8000 -100.9333 226° Southwest 440 506 38,000  Level Edmonton Center
05:43PM 61.7167 -101.1167 226° Southwest 430 495 38,000  Level Edmonton Center
05:44PM 61.6333 -101.3167 229° Southwest 430 495 38,000  Level Edmonton Center
05:45PM 61.5667 -101.5333 237° Southwest 430 495 38,000  Level Edmonton Center
05:46PM 61.4833 -101.7167 226° Southwest 430 495 38,000  Level Edmonton Center
05:47PM 61.4000 -101.9000 227° Southwest 430 495 38,000  Level Edmonton Center
05:48PM 61.3167 -102.1000 229° Southwest 430 495 38,000  Level Edmonton Center
05:49PM 61.2500 -102.2667 230° Southwest 430 495 38,000  Level Edmonton Center
05:50PM 61.1667 -102.4500 227° Southwest 430 495 38,000  Level Edmonton Center
05:51PM 61.0833 -102.6333 227° Southwest 430 495 38,000  Level Edmonton Center
05:52PM 61.0167 -102.8167 233° Southwest 430 495 38,000  Level Edmonton Center
05:53PM 60.9333 -103.0000 227° Southwest 430 495 38,000  Level Edmonton Center
05:54PM 60.8500 -103.2167 232° Southwest 430 495 38,000  Level Edmonton Center
05:55PM 60.7667 -103.4000 227° Southwest 430 495 38,000  Level Edmonton Center
05:56PM 60.6833 -103.5667 224° Southwest 430 495 38,000  Level Edmonton Center
05:57PM 60.6000 -103.7500 227° Southwest 430 495 38,000  Level Edmonton Center
05:58PM 60.5167 -103.9500 230° Southwest 430 495 38,000  Level Edmonton Center
05:59PM 60.4333 -104.1333 227° Southwest 430 495 38,000  Level Edmonton Center
06:00PM 60.3500 -104.3000 225° Southwest 430 495 38,000  Level Edmonton Center
06:01PM 60.2667 -104.4833 228° Southwest 430 495 38,000  Level Edmonton Center
06:02PM 60.1833 -104.6500 225° Southwest 430 495 38,000  Level Edmonton Center
06:03PM 60.1000 -104.8167 225° Southwest 430 495 38,000  Level Edmonton Center
06:04PM 60.0167 -105.0333 232° Southwest 430 495 38,000  Level Edmonton Center
06:05PM 59.9167 -105.2000 220° Southwest 430 495 38,000  Level Edmonton Center
06:06PM 59.8333 -105.3667 225° Southwest 440 506 38,000  Level Edmonton Center
06:07PM 59.7500 -105.5333 225° Southwest 440 506 38,000  Level Edmonton Center
06:08PM 59.6667 -105.7000 225° Southwest 440 506 38,000  Level Edmonton Center
06:09PM 59.5833 -105.9000 231° Southwest 430 495 38,000  Level Edmonton Center
06:10PM 59.5000 -106.0667 225° Southwest 430 495 38,000  Level Edmonton Center
06:11PM 59.4167 -106.2333 226° Southwest 430 495 38,000  Level Edmonton Center
06:12PM 59.3167 -106.3833 217° Southwest 430 495 38,000  Level Edmonton Center
06:13PM 59.2333 -106.5500 226° Southwest 430 495 38,000  Level Edmonton Center
06:14PM 59.1500 -106.7500 231° Southwest 430 495 38,000  Level Edmonton Center
06:15PM 59.0667 -106.9000 223° Southwest 430 495 38,000  Level Edmonton Center
06:16PM 58.9667 -107.0667 221° Southwest 430 495 38,000  Level Edmonton Center
06:17PM 58.9000 -107.2333 232° Southwest 420 483 38,000  Level Edmonton Center
06:18PM 58.8167 -107.3833 223° Southwest 420 483 38,000  Level Edmonton Center
06:19PM 58.7167 -107.5333 218° Southwest 420 483 38,000  Level Edmonton Center
06:20PM 58.6333 -107.7000 226° Southwest 420 483 38,000  Level Edmonton Center
06:21PM 58.5500 -107.8500 223° Southwest 420 483 38,000  Level Edmonton Center
06:22PM 58.4667 -108.0167 226° Southwest 420 483 38,000  Level Edmonton Center
06:23PM 58.3667 -108.1667 218° Southwest 420 483 38,000  Level Edmonton Center
06:24PM 58.2833 -108.3167 223° Southwest 420 483 38,000  Level Edmonton Center
06:25PM 58.2167 -108.4667 230° Southwest 420 483 38,000  Level Edmonton Center
06:26PM 58.1167 -108.6167 218° Southwest 420 483 38,000  Level Edmonton Center
06:27PM 58.0333 -108.7667 224° Southwest 420 483 38,000  Level Edmonton Center
06:28PM 57.9500 -108.9333 227° Southwest 420 483 38,000  Level Edmonton Center
06:29PM 57.8500 -109.1000 222° Southwest 420 483 38,000  Level Edmonton Center
06:30PM 57.7833 -109.2500 230° Southwest 420 483 38,000  Level Edmonton Center
06:31PM 57.7000 -109.4000 224° Southwest 420 483 38,000  Level Edmonton Center
06:32PM 57.6000 -109.5500 219° Southwest 420 483 38,000  Level Edmonton Center
06:33PM 57.5167 -109.7000 224° Southwest 420 483 38,000  Level Edmonton Center
06:34PM 57.4167 -109.8500 219° Southwest 420 483 38,000  Level Edmonton Center
06:35PM 57.3333 -109.9833 221° Southwest 430 495 38,000  Level Edmonton Center
06:36PM 57.2333 -110.1333 219° Southwest 430 495 38,000  Level Edmonton Center
06:37PM 57.1500 -110.2833 224° Southwest 430 495 38,000  Level Edmonton Center
06:38PM 57.0500 -110.4500 222° Southwest 430 495 38,000  Level Edmonton Center
06:39PM 56.9833 -110.6000 231° Southwest 430 495 38,000  Level Edmonton Center
06:40PM 56.8667 -110.7333 212° Southwest 430 495 38,000  Level Edmonton Center
06:41PM 56.8000 -110.8833 231° Southwest 430 495 38,000  Level Edmonton Center
06:42PM 56.7000 -111.0167 216° Southwest 420 483 38,000  Level Edmonton Center
06:43PM 56.6167 -111.1667 225° Southwest 420 483 38,000  Level Edmonton Center
06:44PM 56.5167 -111.3000 216° Southwest 420 483 38,000  Level Edmonton Center
06:45PM 56.4333 -111.4333 222° Southwest 420 483 38,000  Level Edmonton Center
06:46PM 56.3333 -111.6000 223° Southwest 420 483 38,000  Level Edmonton Center
06:47PM 56.2667 -111.7500 231° Southwest 420 483 38,000  Level Edmonton Center
06:48PM 56.1500 -111.8833 212° Southwest 420 483 38,000  Level Edmonton Center
06:49PM 56.0667 -112.0167 222° Southwest 420 483 38,000  Level Edmonton Center
06:50PM 55.9833 -112.1500 222° Southwest 420 483 38,000  Level Edmonton Center
06:51PM 55.8833 -112.2833 217° Southwest 420 483 38,000  Level Edmonton Center
06:52PM 55.8000 -112.4167 222° Southwest 420 483 38,000  Level Edmonton Center
06:53PM 55.7000 -112.5500 217° Southwest 420 483 38,000  Level Edmonton Center
06:54PM 55.6167 -112.6833 222° Southwest 420 483 38,000  Level Edmonton Center
06:55PM 55.5333 -112.8167 222° Southwest 420 483 38,000  Level Edmonton Center
06:56PM 55.4333 -112.9500 217° Southwest 420 483 38,000  Level Edmonton Center
06:57PM 55.3333 -113.1167 224° Southwest 430 495 38,000  Level Edmonton Center
06:58PM 55.2500 -113.2333 219° Southwest 430 495 38,000  Level Edmonton Center
06:59PM 55.1500 -113.3667 217° Southwest 430 495 38,000  Level Edmonton Center
07:00PM 55.0500 -113.5000 217° Southwest 440 506 38,000  Level Edmonton Center
07:01PM 54.9667 -113.6500 226° Southwest 440 506 38,000  Level Edmonton Center
07:02PM 54.8667 -113.7833 218° Southwest 440 506 38,000  Level Edmonton Center
07:03PM 54.7500 -113.9000 210° Southwest 440 506 38,000  Level Edmonton Center
07:04PM 54.6833 -114.0333 229° Southwest 440 506 38,000  Level Edmonton Center
07:05PM 54.5667 -114.1833 217° Southwest 440 506 38,000  Level Edmonton Center
07:11PM 54.0230 -114.9160 217° Southwest 432 497 38,000  Level FlightAware
07:12PM 53.9540 -115.0100 219° Southwest 432 497 38,000  Level FlightAware
07:12PM 53.8880 -115.0950 217° Southwest 430 495 38,000  Level FlightAware
07:13PM 53.8130 -115.1940 218° Southwest 431 496 38,000  Level FlightAware
07:14PM 53.7310 -115.3010 218° Southwest 431 496 38,000  Level FlightAware
07:15PM 53.6670 -115.3850 218° Southwest 426 490 38,000  Level FlightAware
07:15PM 53.6100 -115.4570 217° Southwest 426 490 38,000  Level FlightAware
07:16PM 53.5380 -115.5520 218° Southwest 430 495 38,000  Level FlightAware
07:17PM 53.4760 -115.6300 217° Southwest 433 498 38,000  Level FlightAware
07:18PM 53.3980 -115.7300 217° Southwest 442 509 38,000  Level FlightAware
07:18PM 53.3430 -115.8000 217° Southwest 443 510 38,000  Level FlightAware
07:19PM 53.2780 -115.8810 217° Southwest 445 512 38,000  Level FlightAware
07:20PM 53.1960 -115.9850 217° Southwest 446 513 38,000  Level FlightAware
07:20PM 53.1400 -116.0550 217° Southwest 446 513 38,000  Level FlightAware
07:21PM 53.0840 -116.1260 217° Southwest 446 513 38,000  Level FlightAware
07:22PM 53.0000 -116.2310 217° Southwest 442 509 38,000  Level FlightAware
07:22PM 52.9180 -116.3340 217° Southwest 444 511 38,000  Level FlightAware
07:23PM 52.8430 -116.4240 216° Southwest 445 512 38,000  Level FlightAware
07:24PM 52.7940 -116.4870 218° Southwest 446 513 38,000  Level FlightAware
07:25PM 52.6970 -116.6040 216° Southwest 447 514 38,000  Level FlightAware
07:25PM 52.6060 -116.7170 217° Southwest 447 514 38,000  Level FlightAware
07:26PM 52.5400 -116.7970 216° Southwest 445 512 38,000  Level FlightAware
07:27PM 52.4710 -116.8800 216° Southwest 445 512 38,000  Level FlightAware
07:28PM 52.3960 -116.9690 216° Southwest 447 514 38,000  Level FlightAware
07:28PM 52.3280 -117.0500 216° Southwest 445 512 38,000  Level FlightAware
07:29PM 52.2600 -117.1330 217° Southwest 444 511 38,000  Level FlightAware
07:29PM 52.2080 -117.1950 216° Southwest 445 512 38,000  Level FlightAware
07:30PM 52.1340 -117.2830 216° Southwest 443 510 38,000  Level FlightAware
07:31PM 52.0660 -117.3610 215° Southwest 450 518 38,000  Level FlightAware
07:32PM 51.9880 -117.4510 215° Southwest 442 509 38,000  Level FlightAware
07:32PM 51.9220 -117.5270 215° Southwest 442 509 38,000  Level FlightAware
07:33PM 51.8560 -117.6020 215° Southwest 440 506 38,000  Level FlightAware
07:34PM 51.7780 -117.6910 215° Southwest 441 507 38,000  Level FlightAware
07:34PM 51.7110 -117.7680 215° Southwest 439 505 38,000  Level FlightAware
07:35PM 51.6310 -117.8590 215° Southwest 439 505 38,000  Level FlightAware
07:36PM 51.5600 -117.9380 215° Southwest 439 505 38,000  Level FlightAware
07:37PM 51.4350 -118.0780 215° Southwest 436 502 38,000  Level FlightAware
07:38PM 51.3570 -118.1660 215° Southwest 435 501 38,000  Level FlightAware
07:39PM 51.2820 -118.2500 215° Southwest 434 499 38,000  Level FlightAware
07:39PM 51.2170 -118.3200 214° Southwest 432 497 38,000  Level FlightAware
07:40PM 51.1420 -118.4030 215° Southwest 433 498 38,000  Level FlightAware
07:41PM 51.0870 -118.4630 214° Southwest 439 505 38,000  Level FlightAware
07:42PM 50.9840 -118.5750 214° Southwest 440 506 38,000  Level FlightAware
07:42PM 50.9050 -118.6630 215° Southwest 440 506 38,000  Level FlightAware
07:43PM 50.8140 -118.7620 215° Southwest 441 507 38,000  Level FlightAware
07:44PM 50.7450 -118.8360 214° Southwest 443 510 38,000  Level FlightAware
07:45PM 50.6770 -118.9090 214° Southwest 444 511 38,000  Level FlightAware
07:45PM 50.5990 -118.9930 214° Southwest 446 513 38,000  Level FlightAware
07:46PM 50.5320 -119.0640 214° Southwest 448 516 38,000  Level FlightAware
07:47PM 50.4550 -119.1460 214° Southwest 449 517 38,000  Level FlightAware
07:47PM 50.3860 -119.2190 214° Southwest 451 519 38,000  Level FlightAware
07:48PM 50.3170 -119.2920 214° Southwest 450 518 38,000  Level FlightAware
07:49PM 50.2390 -119.3740 214° Southwest 449 517 38,000  Level FlightAware
07:49PM 50.1700 -119.4460 214° Southwest 449 517 38,000  Level FlightAware
07:53PM 49.8580 -119.7690 214° Southwest 443 510 38,000  Level FlightAware
07:53PM 49.7900 -119.8390 214° Southwest 442 509 38,000  Level FlightAware
07:54PM 49.7130 -119.9180 214° Southwest 441 507 38,000  Level FlightAware
07:55PM 49.6440 -119.9870 213° Southwest 441 507 38,000  Level FlightAware
07:55PM 49.5780 -120.0560 214° Southwest 441 507 38,000  Level FlightAware
07:56PM 49.5010 -120.1340 213° Southwest 441 507 38,000  Level FlightAware
07:57PM 49.4290 -120.2060 213° Southwest 442 509 38,000  Level FlightAware
07:57PM 49.3520 -120.2840 213° Southwest 443 510 38,000  Level FlightAware
07:58PM 49.2870 -120.3470 212° Southwest 444 511 38,000  Level FlightAware
07:59PM 49.2150 -120.4210 214° Southwest 444 511 38,000  Level FlightAware
08:00PM 49.1360 -120.5000 213° Southwest 445 512 38,000  Level FlightAware
08:00PM 49.0590 -120.5750 213° Southwest 444 511 38,000  Level FlightAware
08:01PM 48.9920 -120.6420 213° Southwest 444 511 38,000  Level FlightAware
08:02PM 48.9210 -120.7110 213° Southwest 445 512 38,000  Level FlightAware
08:02PM 48.8430 -120.7880 213° Southwest 446 513 38,000 -660 Level FlightAware
08:03PM 48.7730 -120.8560 213° Southwest 455 524 37,100 -2,160 Descending FlightAware
08:04PM 48.6930 -120.9350 213° Southwest 465 535 35,000 -2,760 Descending FlightAware
08:04PM 48.6210 -121.0030 212° Southwest 466 536 33,200 -2,640 Descending FlightAware
08:05PM 48.5480 -121.0750 213° Southwest 462 532 31,500 -2,280 Descending FlightAware
08:06PM 48.4670 -121.1530 213° Southwest 451 519 30,000 -2,100 Descending FlightAware
08:07PM 48.3990 -121.2180 212° Southwest 443 510 28,600 -1,140 Descending FlightAware
08:07PM 48.3440 -121.2690 212° Southwest 443 510 28,600  Level FlightAware
08:08PM 48.2700 -121.3390 212° Southwest 443 510 28,600  Level FlightAware
08:09PM 48.2110 -121.3940 212° Southwest 443 510 28,600  Level FlightAware
08:09PM 48.1520 -121.4490 212° Southwest 443 510 28,600 -3,300 Level FlightAware
08:10PM 48.0500 -121.5500 214° Southwest 416 479 24,000 -3,480 Descending FlightAware
08:11PM 47.9750 -121.6200 212° Southwest 412 474 23,400 -1,140 Descending FlightAware
08:11PM 47.9210 -121.6710 212° Southwest 398 458 22,500 -1,920 Descending FlightAware
08:12PM 47.8550 -121.7440 217° Southwest 388 447 20,900 -1,200 Descending FlightAware
08:13PM 47.8090 -121.8050 222° Southwest 387 445 20,800 -120 Descending FlightAware
08:13PM 47.7630 -121.8640 221° Southwest 387 445 20,800 -3,720 Level FlightAware
08:14PM 47.6960 -121.9600 224° Southwest 360 414 15,300 -5,400 Descending FlightAware
08:15PM 47.6500 -122.0230 223° Southwest 353 406 13,200 -2,400 Descending FlightAware
08:15PM 47.6080 -122.0790 222° Southwest 332 382 12,500 -1,800 Descending FlightAware
08:16PM 47.5480 -122.1580 222° Southwest 299 344 10,500 -1,980 Descending FlightAware
08:17PM 47.5200 -122.1720 199° South 283 326 9,900 -1,680 Descending FlightAware
08:17PM 47.4820 -122.1700 178° South 284 327 9,000 -1,620 Descending FlightAware
08:18PM 47.4450 -122.1670 177° South 284 327 8,300 -1,620 Descending FlightAware
08:18PM 47.4200 -122.1650 177° South 284 327 7,800 -1,620 Descending FlightAware
08:19PM 47.3610 -122.1610 177° South 285 328 6,600 -1,500 Descending FlightAware
08:19PM 47.3230 -122.1590 178° South 288 331 5,800 -1,740 Descending FlightAware
08:20PM 47.2750 -122.1570 178° South 286 329 4,900 -1,020 Descending FlightAware
08:20PM 47.2380 -122.1560 179° South 281 323 4,800 -120 Descending FlightAware
08:21PM 47.2110 -122.1540 177° South 273 314 4,800  Level FlightAware
08:21PM 47.1680 -122.1530 179° South 272 313 4,800 -420 Level FlightAware
08:21PM 47.1640 -122.1800 258° West 265 305 4,500 -660 Descending FlightAware
08:22PM 47.1540 -122.2500 258° West 250 288 4,200 -780 Descending FlightAware
08:23PM 47.1580 -122.2140 81° East 221 254 3,600 -720 Descending FlightAware
08:23PM 47.1760 -122.2350 322° Northwest 221 254 3,600 -420 Level FlightAware
08:25PM 47.1580 -122.2140 142° Southeast 182 209 2,800 -420 Descending FlightAware
08:25PM 47.1770 -122.2210 346° North 182 209 2,800 -780 Level FlightAware
08:26PM 47.3397 -122.3106 346° North 172 198 2,000 -1,020 Descending Seattle Center
08:26PM 47.3606 -122.3089 North 168 193 1,600 -780 Descending Seattle Center
08:27PM 47.3772 -122.3094 359° North 152 175 1,300 -600 Descending Seattle Center
08:27PM 47.3989 -122.3086 North 132 152 1,000 -600 Descending Seattle Center
08:28PM 47.4081 -122.3089 359° North 118 136 800 -600 Descending Seattle Center
08:28PM 47.4333 -122.3081 North 126 145 400 -600 Descending Seattle Center